Time;durP1;ratioP1;P1;durP2;ratioP2;P2;SDS_P1;SDS_P2;PMS_P1;PMS_P2;Temp;Humidity;BMP_temperature;BMP_pressure;BME280_temperature;BME280_humidity;BME280_pressure;Samples;Min_cycle;Max_cycle;Signal;HPM_P1;HPM_P2
2022/03/21 00:00:00;;;;;;;9.37;6.93;;;;;;;;;;5075167;28;20419;-88
2022/03/21 00:02:26;;;;;;;9.83;6.83;;;;;;;;;;5076409;28;20749;-87
2022/03/21 00:04:54;;;;;;;8.80;6.30;;;;;;;;;;5076308;28;20414;-88
2022/03/21 00:07:20;;;;;;;10.03;7.20;;;;;;;;;;5076328;28;20407;-88
2022/03/21 00:09:46;;;;;;;10.73;7.90;;;;;;;;;;5076176;28;20423;-88
2022/03/21 00:12:13;;;;;;;8.90;7.57;;;;;;;;;;5075856;28;20911;-88
2022/03/21 00:14:42;;;;;;;10.10;6.33;;;;;;;;;;5076289;28;20777;-89
2022/03/21 00:17:09;;;;;;;9.60;7.13;;;;;;;;;;5076071;28;20513;-88
2022/03/21 00:19:35;;;;;;;14.70;8.80;;;;;;;;;;5076048;28;20415;-88
2022/03/21 00:22:01;;;;;;;10.77;6.07;;;;;;;;;;5074788;28;20399;-88
2022/03/21 00:24:27;;;;;;;7.40;6.30;;;;;;;;;;5074651;28;20423;-86
2022/03/21 00:26:53;;;;;;;10.03;8.03;;;;;;;;;;5074487;28;20488;-90
2022/03/21 00:29:19;;;;;;;13.97;7.27;;;;;;;;;;5075955;28;20950;-90
2022/03/21 00:31:45;;;;;;;10.60;6.70;;;;;;;;;;5075865;28;20556;-88
2022/03/21 00:34:11;;;;;;;10.60;7.00;;;;;;;;;;5074654;28;20431;-89
2022/03/21 00:36:37;;;;;;;9.67;7.00;;;;;;;;;;5075952;28;20407;-89
2022/03/21 00:39:03;;;;;;;10.30;6.40;;;;;;;;;;5076057;28;20899;-89
2022/03/21 00:41:31;;;;;;;10.50;7.90;;;;;;;;;;5075421;28;20407;-87
2022/03/21 00:43:59;;;;;;;10.93;8.17;;;;;;;;;;5074253;28;20470;-88
2022/03/21 00:46:25;;;;;;;9.47;7.53;;;;;;;;;;5075402;28;20891;-88
2022/03/21 00:48:51;;;;;;;14.53;7.20;;;;;;;;;;5074653;28;20949;-88
2022/03/21 00:51:17;;;;;;;11.63;6.80;;;;;;;;;;5074217;28;20420;-88
2022/03/21 00:53:43;;;;;;;7.50;5.53;;;;;;;;;;5088447;28;20545;-87
2022/03/21 00:56:09;;;;;;;8.90;7.70;;;;;;;;;;5073604;28;20511;-89
2022/03/21 00:58:35;;;;;;;8.77;7.37;;;;;;;;;;5075115;28;20470;-86
2022/03/21 01:01:01;;;;;;;13.43;7.90;;;;;;;;;;5081179;28;20414;-84
2022/03/21 01:03:27;;;;;;;13.33;7.63;;;;;;;;;;5096180;28;20410;-90
2022/03/21 01:05:53;;;;;;;5.87;5.30;;;;;;;;;;5095913;28;20425;-93
2022/03/21 01:08:19;;;;;;;12.10;8.80;;;;;;;;;;5095090;28;20915;-91
2022/03/21 01:10:45;;;;;;;11.90;7.17;;;;;;;;;;5095942;28;20417;-91
2022/03/21 01:13:10;;;;;;;11.43;6.17;;;;;;;;;;5095003;28;20407;-91
2022/03/21 01:15:36;;;;;;;11.20;7.87;;;;;;;;;;5095020;28;20415;-91
2022/03/21 01:18:03;;;;;;;13.10;7.70;;;;;;;;;;5096142;28;20462;-91
2022/03/21 01:20:29;;;;;;;9.17;6.57;;;;;;;;;;5095982;28;20956;-88
2022/03/21 01:22:55;;;;;;;11.00;8.17;;;;;;;;;;5095014;28;20468;-89
2022/03/21 01:25:21;;;;;;;12.73;7.33;;;;;;;;;;5095853;28;20453;-92
2022/03/21 01:27:47;;;;;;;11.80;8.87;;;;;;;;;;5094500;28;20870;-92
2022/03/21 01:30:14;;;;;;;11.57;7.80;;;;;;;;;;5094822;28;20779;-90
2022/03/21 01:32:42;;;;;;;8.17;6.57;;;;;;;;;;5094731;28;20414;-91
2022/03/21 01:35:09;;;;;;;13.03;7.67;;;;;;;;;;5095792;28;20767;-91
2022/03/21 01:37:35;;;;;;;9.00;7.40;;;;;;;;;;5095716;28;20474;-91
2022/03/21 01:40:00;;;;;;;11.50;6.10;;;;;;;;;;5095152;28;20451;-91
2022/03/21 01:42:26;;;;;;;8.90;7.40;;;;;;;;;;5095707;28;20413;-92
2022/03/21 01:44:53;;;;;;;11.33;8.07;;;;;;;;;;5095411;28;20402;-91
2022/03/21 01:47:19;;;;;;;10.03;6.90;;;;;;;;;;5095604;28;20414;-91
2022/03/21 01:49:45;;;;;;;8.37;6.07;;;;;;;;;;5095635;28;20414;-91
2022/03/21 01:52:11;;;;;;;9.20;6.63;;;;;;;;;;5095282;28;20887;-90
2022/03/21 01:57:23;;;;;;;10.87;7.80;;;;;;;;;;5095808;28;20473;-91
2022/03/21 01:59:49;;;;;;;7.83;6.30;;;;;;;;;;5093319;28;20423;-89
2022/03/21 02:02:15;;;;;;;11.73;8.03;;;;;;;;;;5095150;28;20489;-91
2022/03/21 02:04:42;;;;;;;10.53;8.00;;;;;;;;;;5095229;28;20410;-91
2022/03/21 02:07:08;;;;;;;8.63;6.30;;;;;;;;;;5093965;28;20419;-91
2022/03/21 02:09:34;;;;;;;8.80;6.83;;;;;;;;;;5094944;28;20411;-84
2022/03/21 02:12:00;;;;;;;8.70;7.17;;;;;;;;;;5095105;28;20411;-92
2022/03/21 02:14:26;;;;;;;9.80;6.33;;;;;;;;;;5095022;28;20418;-90
2022/03/21 02:16:52;;;;;;;11.73;7.37;;;;;;;;;;5094968;28;20402;-91
2022/03/21 02:19:22;;;;;;;9.03;7.20;;;;;;;;;;5095323;28;20429;-91
2022/03/21 02:22:07;;;;;;;9.77;7.43;;;;;;;;;;5094665;28;20406;-90
2022/03/21 02:24:50;;;;;;;12.87;6.80;;;;;;;;;;5094593;28;20398;-87
2022/03/21 02:27:17;;;;;;;9.37;6.90;;;;;;;;;;5094444;28;20406;-86
2022/03/21 02:29:44;;;;;;;9.47;6.43;;;;;;;;;;5094182;28;20533;-90
2022/03/21 02:32:10;;;;;;;11.90;7.90;;;;;;;;;;5094498;28;20455;-89
2022/03/21 02:34:37;;;;;;;12.47;7.30;;;;;;;;;;5094392;28;20418;-89
2022/03/21 02:37:04;;;;;;;6.80;5.00;;;;;;;;;;5093499;28;20528;-90
2022/03/21 02:39:30;;;;;;;10.60;7.40;;;;;;;;;;5094059;28;20416;-89
2022/03/21 02:41:56;;;;;;;9.00;7.50;;;;;;;;;;5094341;28;20418;-91
2022/03/21 02:44:22;;;;;;;13.50;7.90;;;;;;;;;;5094049;28;20426;-90
2022/03/21 02:46:48;;;;;;;9.33;6.50;;;;;;;;;;5093243;28;20414;-90
2022/03/21 02:49:14;;;;;;;14.77;7.47;;;;;;;;;;5093394;28;20415;-90
2022/03/21 02:51:41;;;;;;;8.10;6.73;;;;;;;;;;5093204;28;20411;-90
2022/03/21 02:54:07;;;;;;;10.00;7.80;;;;;;;;;;5094388;28;20464;-90
2022/03/21 02:56:34;;;;;;;10.53;7.93;;;;;;;;;;5092854;28;20414;-90
2022/03/21 02:59:00;;;;;;;9.93;7.90;;;;;;;;;;5094248;28;20466;-90
2022/03/21 03:01:26;;;;;;;10.80;7.20;;;;;;;;;;5093129;28;20443;-90
2022/03/21 03:03:52;;;;;;;12.50;7.63;;;;;;;;;;5094185;28;20463;-91
2022/03/21 03:06:18;;;;;;;7.97;6.67;;;;;;;;;;5093967;28;20456;-91
2022/03/21 03:08:44;;;;;;;9.37;7.03;;;;;;;;;;5093014;28;20425;-91
2022/03/21 03:11:11;;;;;;;12.13;6.43;;;;;;;;;;5092424;28;21163;-91
2022/03/21 03:13:37;;;;;;;9.80;5.97;;;;;;;;;;5092849;28;20911;-91
2022/03/21 03:16:03;;;;;;;9.87;7.13;;;;;;;;;;5092879;28;20912;-91
2022/03/21 03:18:29;;;;;;;9.50;7.43;;;;;;;;;;5093785;28;20506;-90
2022/03/21 03:20:56;;;;;;;8.87;6.17;;;;;;;;;;5093161;28;20426;-91
2022/03/21 03:23:23;;;;;;;10.80;8.47;;;;;;;;;;5094096;28;20479;-91
2022/03/21 03:25:51;;;;;;;11.83;7.63;;;;;;;;;;5093689;28;20897;-91
2022/03/21 03:28:17;;;;;;;10.30;7.17;;;;;;;;;;5093957;28;20476;-91
2022/03/21 03:30:43;;;;;;;10.77;8.17;;;;;;;;;;5092847;28;20419;-91
2022/03/21 03:33:09;;;;;;;10.20;8.50;;;;;;;;;;5092621;28;20785;-90
2022/03/21 03:35:36;;;;;;;11.30;7.57;;;;;;;;;;5092631;28;20506;-91
2022/03/21 03:38:02;;;;;;;8.10;6.17;;;;;;;;;;5093922;28;20465;-91
2022/03/21 03:40:28;;;;;;;12.13;7.80;;;;;;;;;;5093084;28;20406;-88
2022/03/21 03:42:54;;;;;;;9.97;7.60;;;;;;;;;;5093811;28;20424;-91
2022/03/21 03:45:20;;;;;;;8.17;6.00;;;;;;;;;;5093968;28;20410;-91
2022/03/21 03:47:46;;;;;;;10.90;7.80;;;;;;;;;;5092889;28;20418;-92
2022/03/21 03:50:12;;;;;;;8.53;6.93;;;;;;;;;;5093970;28;20410;-91
2022/03/21 03:52:40;;;;;;;11.50;7.67;;;;;;;;;;5093965;28;20965;-91
2022/03/21 03:55:06;;;;;;;9.20;6.67;;;;;;;;;;5092498;28;20527;-92
2022/03/21 03:57:32;;;;;;;9.40;7.80;;;;;;;;;;5092771;28;20465;-92
2022/03/21 03:59:58;;;;;;;10.80;6.73;;;;;;;;;;5092955;28;20418;-91
2022/03/21 04:02:24;;;;;;;12.03;7.33;;;;;;;;;;5093813;28;20412;-91
2022/03/21 04:04:50;;;;;;;9.00;7.13;;;;;;;;;;5093678;28;20775;-90
2022/03/21 04:07:18;;;;;;;8.60;7.43;;;;;;;;;;5094032;28;20501;-90
2022/03/21 04:09:44;;;;;;;13.00;8.63;;;;;;;;;;5091928;28;20411;-91
2022/03/21 04:12:10;;;;;;;10.03;7.73;;;;;;;;;;5093594;28;20475;-92
2022/03/21 04:14:36;;;;;;;13.03;7.27;;;;;;;;;;5093574;28;20496;-91
2022/03/21 04:17:02;;;;;;;10.10;7.60;;;;;;;;;;5093328;28;20873;-90
2022/03/21 04:19:28;;;;;;;9.50;7.90;;;;;;;;;;5092427;28;20526;-90
2022/03/21 04:21:54;;;;;;;11.47;8.20;;;;;;;;;;5093551;28;20748;-91
2022/03/21 04:24:20;;;;;;;10.80;7.93;;;;;;;;;;5096024;28;20493;-91
2022/03/21 04:26:46;;;;;;;11.63;7.83;;;;;;;;;;5097096;28;20806;-91
2022/03/21 04:29:12;;;;;;;9.30;6.80;;;;;;;;;;5095741;28;20546;-91
2022/03/21 04:31:38;;;;;;;12.20;7.87;;;;;;;;;;5097027;28;20444;-91
2022/03/21 04:34:04;;;;;;;9.90;7.53;;;;;;;;;;5097045;28;20509;-91
2022/03/21 04:36:31;;;;;;;10.77;7.63;;;;;;;;;;5095881;28;20446;-90
2022/03/21 04:38:57;;;;;;;9.30;7.47;;;;;;;;;;5096773;28;20549;-90
2022/03/21 04:41:22;;;;;;;13.53;8.70;;;;;;;;;;5096502;28;20912;-90
2022/03/21 04:43:49;;;;;;;8.77;7.80;;;;;;;;;;5095523;28;20448;-92
2022/03/21 04:46:15;;;;;;;11.47;7.30;;;;;;;;;;5096586;28;20405;-91
2022/03/21 04:48:41;;;;;;;11.43;7.60;;;;;;;;;;5095768;28;20406;-92
2022/03/21 04:51:07;;;;;;;12.57;7.87;;;;;;;;;;5096610;28;20398;-91
2022/03/21 04:53:33;;;;;;;11.13;8.23;;;;;;;;;;5096816;28;20505;-86
2022/03/21 04:55:59;;;;;;;11.20;8.13;;;;;;;;;;5096280;28;20441;-91
2022/03/21 04:58:25;;;;;;;11.20;8.70;;;;;;;;;;5096476;28;20539;-92
2022/03/21 05:00:51;;;;;;;7.43;6.70;;;;;;;;;;5096563;28;20514;-91
2022/03/21 05:03:17;;;;;;;9.17;8.17;;;;;;;;;;5096548;28;20425;-92
2022/03/21 05:05:45;;;;;;;17.60;7.63;;;;;;;;;;5095104;28;20498;-92
2022/03/21 05:08:11;;;;;;;10.43;7.33;;;;;;;;;;5096501;28;20456;-91
2022/03/21 05:10:37;;;;;;;14.30;7.90;;;;;;;;;;5095877;28;20467;-87
2022/03/21 05:13:04;;;;;;;11.10;8.53;;;;;;;;;;5095237;28;20402;-91
2022/03/21 05:15:30;;;;;;;10.47;7.17;;;;;;;;;;5095175;28;20410;-91
2022/03/21 05:17:56;;;;;;;11.03;8.00;;;;;;;;;;5095097;28;20884;-92
2022/03/21 05:20:22;;;;;;;10.57;7.33;;;;;;;;;;5095253;28;20507;-92
2022/03/21 05:30:57;;;;;;;9.43;7.20;;;;;;;;;;5096208;28;20423;-92
2022/03/21 05:31:05;;;;;;;8.40;7.30;;;;;;;;;;5096056;28;20943;-91
2022/03/21 05:36:17;;;;;;;10.37;7.50;;;;;;;;;;5095759;28;20430;-90
2022/03/21 05:38:43;;;;;;;9.83;7.10;;;;;;;;;;5095815;28;20471;-91
2022/03/21 05:41:09;;;;;;;9.87;7.30;;;;;;;;;;5095639;28;20908;-89
2022/03/21 05:43:35;;;;;;;9.47;8.07;;;;;;;;;;5095695;28;20422;-85
2022/03/21 05:46:03;;;;;;;12.97;9.00;;;;;;;;;;5095704;28;20406;-91
2022/03/21 05:51:15;;;;;;;12.10;7.10;;;;;;;;;;5096029;28;20747;-91
2022/03/21 05:53:41;;;;;;;10.20;7.60;;;;;;;;;;5095736;28;20467;-91
2022/03/21 05:56:06;;;;;;;9.90;6.13;;;;;;;;;;5094209;28;20922;-92
2022/03/21 05:58:32;;;;;;;15.13;9.30;;;;;;;;;;5095118;28;20511;-91
2022/03/21 06:00:58;;;;;;;11.03;8.53;;;;;;;;;;5094497;28;20469;-91
2022/03/21 06:03:24;;;;;;;10.43;7.87;;;;;;;;;;5094273;28;20419;-91
2022/03/21 06:05:51;;;;;;;12.23;7.57;;;;;;;;;;5094276;28;20415;-91
2022/03/21 06:08:17;;;;;;;12.13;6.63;;;;;;;;;;5095201;28;20446;-90
2022/03/21 06:10:42;;;;;;;9.57;7.40;;;;;;;;;;5093556;28;20431;-90
2022/03/21 06:13:09;;;;;;;10.07;7.63;;;;;;;;;;5093823;28;20474;-90
2022/03/21 06:15:35;;;;;;;13.07;9.10;;;;;;;;;;5093713;28;20476;-90
2022/03/21 06:18:02;;;;;;;10.87;8.20;;;;;;;;;;5094961;28;20994;-90
2022/03/21 06:20:28;;;;;;;7.10;5.57;;;;;;;;;;5094618;28;20907;-90
2022/03/21 06:22:54;;;;;;;11.97;8.13;;;;;;;;;;5094812;28;20466;-88
2022/03/21 06:25:20;;;;;;;9.87;6.77;;;;;;;;;;5094502;28;20402;-90
2022/03/21 06:27:48;;;;;;;13.03;9.00;;;;;;;;;;5094425;28;20836;-91
2022/03/21 06:30:14;;;;;;;12.70;9.27;;;;;;;;;;5094735;28;20391;-91
2022/03/21 06:32:40;;;;;;;9.13;7.93;;;;;;;;;;5094743;28;20445;-91
2022/03/21 06:35:09;;;;;;;12.37;8.50;;;;;;;;;;5093760;28;20445;-91
2022/03/21 06:37:35;;;;;;;11.20;7.37;;;;;;;;;;5094610;28;20458;-90
2022/03/21 06:40:01;;;;;;;11.60;8.70;;;;;;;;;;5094160;28;20715;-92
2022/03/21 06:42:27;;;;;;;11.83;7.30;;;;;;;;;;5093890;28;20406;-91
2022/03/21 06:44:53;;;;;;;9.20;7.20;;;;;;;;;;5094449;28;20846;-90
2022/03/21 06:47:19;;;;;;;10.20;7.53;;;;;;;;;;5093093;28;20440;-91
2022/03/21 06:49:46;;;;;;;9.77;6.60;;;;;;;;;;5098974;28;20409;-91
2022/03/21 06:52:12;;;;;;;12.20;8.47;;;;;;;;;;5077323;28;20425;-91
2022/03/21 06:54:50;;;;;;;11.13;8.73;;;;;;;;;;5095540;28;20544;-88
2022/03/21 06:57:17;;;;;;;8.93;7.20;;;;;;;;;;5094117;28;20465;-90
2022/03/21 06:59:43;;;;;;;10.53;8.27;;;;;;;;;;5094020;28;20403;-90
2022/03/21 07:02:09;;;;;;;11.07;8.27;;;;;;;;;;5094249;28;20414;-91
2022/03/21 07:04:35;;;;;;;8.37;7.37;;;;;;;;;;5075673;28;20841;-90
2022/03/21 07:07:01;;;;;;;13.83;7.53;;;;;;;;;;5093202;28;20430;-90
2022/03/21 07:09:27;;;;;;;12.10;9.17;;;;;;;;;;5094450;28;20424;-90
2022/03/21 07:11:53;;;;;;;10.33;8.20;;;;;;;;;;5093123;28;20951;-90
2022/03/21 07:14:20;;;;;;;15.20;8.73;;;;;;;;;;5093871;28;20419;-91
2022/03/21 07:16:46;;;;;;;9.50;7.13;;;;;;;;;;5094220;28;20465;-90
2022/03/21 07:19:12;;;;;;;14.37;8.33;;;;;;;;;;5093069;28;20425;-85
2022/03/21 07:21:37;;;;;;;11.07;7.70;;;;;;;;;;5093008;28;20414;-91
2022/03/21 07:24:04;;;;;;;7.97;6.23;;;;;;;;;;5092746;28;20562;-90
2022/03/21 07:26:31;;;;;;;11.60;8.20;;;;;;;;;;5092817;28;20420;-90
2022/03/21 07:28:57;;;;;;;9.97;7.90;;;;;;;;;;5092817;28;20464;-90
2022/03/21 07:31:23;;;;;;;11.43;9.80;;;;;;;;;;5096361;28;20507;-91
2022/03/21 07:33:52;;;;;;;15.20;9.57;;;;;;;;;;5093855;28;20482;-91
2022/03/21 07:36:18;;;;;;;9.33;7.87;;;;;;;;;;5093300;28;20410;-90
2022/03/21 07:38:47;;;;;;;9.20;7.70;;;;;;;;;;5093519;28;20838;-91
2022/03/21 07:41:13;;;;;;;10.13;7.00;;;;;;;;;;5097702;28;20432;-90
2022/03/21 07:43:39;;;;;;;11.90;9.80;;;;;;;;;;5099602;28;20428;-91
2022/03/21 07:48:50;;;;;;;13.50;9.27;;;;;;;;;;5098660;28;20999;-84
2022/03/21 07:51:16;;;;;;;12.70;9.30;;;;;;;;;;5097214;28;20428;-89
2022/03/21 07:53:42;;;;;;;11.00;7.80;;;;;;;;;;5098068;28;20415;-86
2022/03/21 07:56:09;;;;;;;13.43;8.67;;;;;;;;;;5097272;28;20504;-84
2022/03/21 07:58:35;;;;;;;13.33;9.57;;;;;;;;;;5098804;28;20476;-82
2022/03/21 08:01:01;;;;;;;12.27;8.87;;;;;;;;;;5100866;28;20409;-82
2022/03/21 08:03:28;;;;;;;12.07;8.20;;;;;;;;;;5102681;28;20457;-87
2022/03/21 08:05:59;;;;;;;12.87;8.50;;;;;;;;;;5098288;28;20408;-88
2022/03/21 08:08:27;;;;;;;12.23;10.13;;;;;;;;;;5097552;28;20461;-90
2022/03/21 08:10:53;;;;;;;11.50;8.47;;;;;;;;;;5097274;28;20415;-89
2022/03/21 08:13:19;;;;;;;10.40;7.37;;;;;;;;;;5097553;28;20466;-84
2022/03/21 08:15:46;;;;;;;12.67;8.17;;;;;;;;;;5097820;28;20415;-85
2022/03/21 08:18:12;;;;;;;11.43;8.17;;;;;;;;;;5097709;28;20458;-92
2022/03/21 08:20:39;;;;;;;13.80;9.27;;;;;;;;;;5096265;28;20421;-91
2022/03/21 08:23:11;;;;;;;12.37;8.30;;;;;;;;;;5097920;28;20420;-91
2022/03/21 08:25:37;;;;;;;9.60;8.37;;;;;;;;;;5097112;28;20904;-88
2022/03/21 08:28:07;;;;;;;11.07;8.60;;;;;;;;;;5096110;28;20460;-92
2022/03/21 08:30:35;;;;;;;14.07;9.57;;;;;;;;;;5097481;28;20440;-92
2022/03/21 08:33:02;;;;;;;10.00;7.77;;;;;;;;;;5096736;28;20480;-90
2022/03/21 08:35:28;;;;;;;12.83;9.50;;;;;;;;;;5097601;28;20414;-90
2022/03/21 08:37:54;;;;;;;10.47;8.20;;;;;;;;;;5097290;28;20462;-91
2022/03/21 08:40:20;;;;;;;10.70;8.60;;;;;;;;;;5097001;28;20409;-91
2022/03/21 08:42:47;;;;;;;9.87;7.90;;;;;;;;;;5097155;28;20411;-91
2022/03/21 08:45:15;;;;;;;7.37;5.50;;;;;;;;;;5097416;28;20481;-91
2022/03/21 08:47:42;;;;;;;12.30;9.10;;;;;;;;;;5097301;28;20432;-91
2022/03/21 08:50:09;;;;;;;12.10;9.00;;;;;;;;;;5095773;28;20427;-90
2022/03/21 08:52:35;;;;;;;10.50;8.20;;;;;;;;;;5096795;28;20552;-92
2022/03/21 08:55:01;;;;;;;10.57;7.47;;;;;;;;;;5095517;28;20424;-93
2022/03/21 08:57:27;;;;;;;13.50;8.07;;;;;;;;;;5096801;28;20785;-91
2022/03/21 08:59:53;;;;;;;10.53;9.07;;;;;;;;;;5097152;28;20741;-93
2022/03/21 09:02:20;;;;;;;9.40;7.10;;;;;;;;;;5097205;28;20405;-91
2022/03/21 09:04:46;;;;;;;13.47;9.17;;;;;;;;;;5096991;28;20439;-92
2022/03/21 09:07:14;;;;;;;10.20;7.90;;;14.40;1.00;;;;;;5096705;28;20418;-94
2022/03/21 09:09:41;;;;;;;10.03;7.40;;;14.40;1.00;;;;;;5097628;28;20442;-91
2022/03/21 09:12:07;;;;;;;12.37;9.77;;;12.90;1.00;;;;;;5096819;28;20423;-87
2022/03/21 09:14:34;;;;;;;11.60;7.13;;;13.50;1.00;;;;;;5097150;28;20417;-92
2022/03/21 09:17:01;;;;;;;12.23;9.07;;;14.80;1.00;;;;;;5096560;28;20818;-95
2022/03/21 09:19:29;;;;;;;9.87;8.37;;;14.50;1.00;;;;;;5096924;28;20907;-93
2022/03/21 09:21:55;;;;;;;10.20;8.20;;;14.40;1.00;;;;;;5096654;28;20452;-89
2022/03/21 09:24:21;;;;;;;11.87;8.30;;;15.30;1.00;;;;;;5095623;28;20424;-90
2022/03/21 09:26:46;;;;;;;12.73;8.83;;;15.50;1.00;;;;;;5097206;28;20436;-88
2022/03/21 09:29:12;;;;;;;12.83;10.20;;;15.90;1.00;;;;;;5095788;28;20968;-90
2022/03/21 09:31:41;;;;;;;10.53;8.70;;;14.80;1.00;;;;;;5095914;28;20175;-90
2022/03/21 09:34:08;;;;;;;13.20;8.37;;;14.10;1.00;;;;;;5095697;28;20835;-87
2022/03/21 09:36:35;;;;;;;13.20;7.97;;;14.90;1.00;;;;;;5095449;28;20484;-89
2022/03/21 09:39:04;;;;;;;15.63;10.83;;;16.00;1.00;;;;;;5095204;28;20537;-90
2022/03/21 09:41:30;;;;;;;9.63;8.73;;;16.90;1.00;;;;;;5094136;28;20416;-87
2022/03/21 09:44:00;;;;;;;12.07;10.27;;;15.20;1.00;;;;;;5095332;28;20814;-91
2022/03/21 09:46:26;;;;;;;11.27;9.83;;;17.30;1.00;;;;;;5095533;28;20410;-89
2022/03/21 09:48:53;;;;;;;12.77;9.83;;;16.30;1.00;;;;;;5095230;28;20418;-89
2022/03/21 09:51:21;;;;;;;12.43;10.27;;;16.80;1.00;;;;;;5095233;28;20405;-89
2022/03/21 09:53:47;;;;;;;12.13;10.13;;;15.40;1.00;;;;;;5093950;28;20916;-90
2022/03/21 09:56:13;;;;;;;11.40;9.50;;;16.00;1.00;;;;;;5094041;28;20431;-88
2022/03/21 09:58:38;;;;;;;12.93;10.60;;;16.90;1.00;;;;;;5095005;28;20207;-86
2022/03/21 10:01:05;;;;;;;10.00;9.00;;;17.80;1.00;;;;;;5094708;28;20447;-90
2022/03/21 10:03:44;;;;;;;10.43;9.17;;;17.00;1.00;;;;;;5095119;28;20175;-91
2022/03/21 10:06:33;;;;;;;9.20;7.87;;;16.80;1.00;;;;;;5095474;28;20505;-90
2022/03/21 10:09:12;;;;;;;15.40;9.73;;;15.00;1.00;;;;;;5095332;28;20409;-91
2022/03/21 10:11:49;;;;;;;15.07;8.80;;;17.00;1.00;;;;;;5098507;28;20430;-91
2022/03/21 10:14:36;;;;;;;12.23;9.60;;;15.90;1.00;;;;;;5094890;28;20913;-89
2022/03/21 10:17:06;;;;;;;11.87;8.60;;;15.50;1.00;;;;;;5106197;28;20427;-88
2022/03/21 10:19:46;;;;;;;11.80;10.17;;;16.60;1.00;;;;;;5114237;28;20522;-84
2022/03/21 10:22:34;;;;;;;11.40;10.20;;;16.20;1.00;;;;;;5112337;28;20409;-89
2022/03/21 10:25:06;;;;;;;10.70;8.50;;;15.20;1.00;;;;;;5112449;28;20932;-84
2022/03/21 10:27:37;;;;;;;10.97;9.83;;;17.30;1.00;;;;;;5110165;28;20429;-89
2022/03/21 10:30:08;;;;;;;12.43;11.10;;;15.90;1.00;;;;;;5094860;28;20412;-87
2022/03/21 10:32:37;;;;;;;11.00;8.80;;;16.90;1.00;;;;;;5094862;28;20416;-90
2022/03/21 10:35:18;;;;;;;13.07;9.87;;;15.70;1.00;;;;;;5094691;28;20427;-87
2022/03/21 10:37:56;;;;;;;10.80;9.10;;;16.10;1.00;;;;;;5094569;28;20521;-91
2022/03/21 10:40:27;;;;;;;10.67;9.23;;;15.70;1.00;;;;;;5093277;28;20920;-88
2022/03/21 10:43:05;;;;;;;10.70;9.60;;;16.40;1.00;;;;;;5094246;28;20522;-89
2022/03/21 10:45:36;;;;;;;12.40;11.03;;;18.00;1.00;;;;;;5093975;28;20782;-91
2022/03/21 10:48:07;;;;;;;11.63;10.20;;;17.30;1.00;;;;;;5094222;28;20552;-89
2022/03/21 10:50:35;;;;;;;10.70;8.60;;;16.60;1.00;;;;;;5093073;28;20914;-83
2022/03/21 10:53:10;;;;;;;8.67;7.60;;;16.90;1.00;;;;;;5092561;28;20476;-83
2022/03/21 10:55:36;;;;;;;13.93;10.40;;;15.20;1.00;;;;;;5093398;28;20465;-83
2022/03/21 10:58:02;;;;;;;11.23;10.00;;;16.00;1.00;;;;;;5093712;28;20466;-87
2022/03/21 11:00:28;;;;;;;12.67;10.30;;;17.90;1.00;;;;;;5093801;28;20410;-85
2022/03/21 11:03:07;;;;;;;13.13;9.93;;;17.10;1.00;;;;;;5092572;28;20267;-83
2022/03/21 11:05:36;;;;;;;12.77;9.30;;;17.20;1.00;;;;;;5093624;28;20918;-89
2022/03/21 11:08:03;;;;;;;10.73;9.63;;;18.20;1.00;;;;;;5093603;28;20423;-88
2022/03/21 11:10:29;;;;;;;12.50;10.00;;;17.90;1.00;;;;;;5093386;28;20473;-83
2022/03/21 11:12:57;;;;;;;10.60;9.50;;;16.70;1.00;;;;;;5092986;28;20418;-83
2022/03/21 11:15:23;;;;;;;11.97;9.40;;;17.80;1.00;;;;;;5093502;28;20435;-84
2022/03/21 11:17:48;;;;;;;11.30;9.30;;;18.30;1.00;;;;;;5094751;28;20528;-83
2022/03/21 11:20:15;;;;;;;11.70;9.50;;;17.90;1.00;;;;;;5079486;28;20424;-83
2022/03/21 11:22:42;;;;;;;10.83;9.73;;;16.40;1.00;;;;;;5095222;28;20244;-81
2022/03/21 11:25:13;;;;;;;11.00;9.70;;;17.90;1.00;;;;;;5096340;28;20408;-84
2022/03/21 11:27:53;;;;;;;12.47;9.43;;;17.80;1.00;;;;;;5096816;28;20445;-83
2022/03/21 11:30:41;;;;;;;10.93;9.03;;;18.20;1.00;;;;;;5095119;28;20518;-82
2022/03/21 11:33:40;;;;;;;10.67;9.57;;;17.80;1.00;;;;;;5100622;28;20420;-82
2022/03/21 11:36:09;;;;;;;13.13;11.13;;;17.70;1.00;;;;;;5102148;28;20458;-87
2022/03/21 11:38:47;;;;;;;12.57;9.93;;;18.20;1.00;;;;;;5100462;28;20475;-82
2022/03/21 11:41:12;;;;;;;12.40;9.50;;;18.50;1.00;;;;;;5100582;28;20440;-82
2022/03/21 11:43:40;;;;;;;12.40;11.07;;;18.70;1.00;;;;;;5101418;28;20420;-85
2022/03/21 11:46:25;;;;;;;11.40;9.83;;;;;;;;;;5100784;28;20231;-86
2022/03/21 11:48:51;;;;;;;10.90;9.80;;;;;;;;;;5103268;28;20425;-85
2022/03/21 11:51:17;;;;;;;14.07;9.63;;;;;;;;;;5099881;28;20418;-82
2022/03/21 11:53:50;;;;;;;11.90;10.73;;;;;;;;;;5099253;28;20514;-85
2022/03/21 11:56:17;;;;;;;11.10;9.60;;;;;;;;;;5097847;28;20693;-83
2022/03/21 11:58:46;;;;;;;11.23;10.13;;;;;;;;;;5098452;28;20458;-83
2022/03/21 12:01:24;;;;;;;11.27;10.07;;;;;;;;;;5099766;28;20410;-82
2022/03/21 12:03:50;;;;;;;10.73;9.53;;;;;;;;;;5097781;28;20502;-84
2022/03/21 12:06:30;;;;;;;11.33;9.50;;;;;;;;;;5098059;28;20404;-87
2022/03/21 12:08:59;;;;;;;9.23;8.13;;;;;;;;;;5097596;28;20414;-87
2022/03/21 12:11:40;;;;;;;11.30;10.10;;;;;;;;;;5098091;28;20864;-84
2022/03/21 12:14:25;;;;;;;12.13;10.67;;;;;;;;;;5096751;28;20935;-88
2022/03/21 12:17:03;;;;;;;11.93;10.50;;;;;;;;;;5097944;28;20445;-83
2022/03/21 12:20:03;;;;;;;10.97;9.87;;;;;;;;;;5096370;28;20847;-89
2022/03/21 12:22:43;;;;;;;11.50;10.30;;;;;;;;;;5097399;28;20410;-91
2022/03/21 12:25:13;;;;;;;11.40;9.60;;;;;;;;;;5097183;28;20975;-89
2022/03/21 12:27:45;;;;;;;12.70;11.27;;;;;;;;;;5096927;28;20400;-84
2022/03/21 12:30:23;;;;;;;10.87;9.77;;;;;;;;;;5097035;28;20520;-87
2022/03/21 12:32:49;;;;;;;10.87;9.83;;;;;;;;;;5096630;28;20414;-83
2022/03/21 12:35:40;;;;;;;11.03;9.93;;;;;;;;;;5099077;28;20507;-88
2022/03/21 12:38:14;;;;;;;15.30;10.90;;;;;;;;;;5097192;28;20671;-89
2022/03/21 12:40:46;;;;;;;11.70;10.60;;;;;;;;;;5097494;28;20442;-88
2022/03/21 12:43:13;;;;;;;12.27;10.43;;;;;;;;;;5096839;28;20741;-91
2022/03/21 12:45:39;;;;;;;12.10;10.43;;;;;;;;;;5096431;28;20422;-90
2022/03/21 12:48:09;;;;;;;12.70;10.00;;;;;;;;;;5097614;28;20420;-89
2022/03/21 12:50:42;;;;;;;10.20;8.90;;;;;;;;;;5096894;28;20413;-90
2022/03/21 12:53:09;;;;;;;13.00;10.37;;;;;;;;;;5096129;28;20494;-90
2022/03/21 12:55:35;;;;;;;10.90;9.40;;;;;;;;;;5097051;28;20404;-88
2022/03/21 12:58:00;;;;;;;10.67;9.57;;;;;;;;;;5096385;28;20891;-90
2022/03/21 13:00:27;;;;;;;11.70;10.50;;;;;;;;;;5097159;28;20459;-90
2022/03/21 13:02:56;;;;;;;11.87;9.67;;;;;;;;;;5096804;28;20405;-90
2022/03/21 13:11:05;;;;;;;11.60;10.40;;;;;;;;;;5105603;28;20846;-89
2022/03/21 13:13:43;;;;;;;12.17;10.43;;;;;;;;;;5104353;28;20396;-84
2022/03/21 13:16:09;;;;;;;11.23;10.03;;;;;;;;;;5102940;28;20403;-84
2022/03/21 13:18:40;;;;;;;11.83;10.30;;;;;;;;;;5099108;28;20481;-85
2022/03/21 13:21:07;;;;;;;12.70;10.77;;;;;;;;;;5100310;28;20407;-86
2022/03/21 13:23:34;;;;;;;11.93;9.80;;;;;;;;;;5100853;28;20411;-84
2022/03/21 13:26:17;;;;;;;11.87;10.03;;;;;;;;;;5100181;28;20449;-88
2022/03/21 13:28:43;;;;;;;11.43;10.23;;;;;;;;;;5100061;28;20473;-86
2022/03/21 13:31:17;;;;;;;14.07;11.40;;;;;;;;;;5100941;28;20822;-87
2022/03/21 13:33:50;;;;;;;12.07;10.03;;;;;;;;;;5101213;28;20408;-83
2022/03/21 13:36:24;;;;;;;11.50;10.30;;;;;;;;;;5103799;28;20407;-89
2022/03/21 13:39:08;;;;;;;11.70;10.03;;;;;;;;;;5097982;28;20482;-84
2022/03/21 13:41:34;;;;;;;13.70;9.33;;;;;;;;;;5099648;28;20406;-86
2022/03/21 13:44:01;;;;;;;12.23;10.77;;;;;;;;;;5101220;28;20408;-82
2022/03/21 13:46:27;;;;;;;11.77;9.33;;;;;;;;;;5100778;28;20412;-88
2022/03/21 13:48:53;;;;;;;14.30;9.50;;;;;;;;;;5099967;28;20560;-82
2022/03/21 13:51:20;;;;;;;12.63;9.43;;;;;;;;;;5100124;28;20415;-83
2022/03/21 13:53:46;;;;;;;13.17;9.30;;;;;;;;;;5098531;28;20478;-84
2022/03/21 13:56:13;;;;;;;10.93;9.40;;;;;;;;;;5098838;28;20407;-84
2022/03/21 13:58:40;;;;;;;12.20;10.30;;;;;;;;;;5097803;28;20467;-86
2022/03/21 14:01:18;;;;;;;13.03;10.00;;;;;;;;;;5098990;28;20443;-85
2022/03/21 14:03:46;;;;;;;11.70;9.83;;;;;;;;;;5101216;28;20506;-91
2022/03/21 14:06:12;;;;;;;10.10;9.10;;;;;;;;;;5098885;28;20987;-83
2022/03/21 14:08:39;;;;;;;11.23;9.17;;;;;;;;;;5099963;28;20437;-86
2022/03/21 14:11:10;;;;;;;13.00;10.53;;;;;;;;;;5098110;28;20964;-91
2022/03/21 14:13:38;;;;;;;12.47;10.00;;;;;;;;;;5101100;28;20411;-89
2022/03/21 14:16:04;;;;;;;14.00;10.03;;;;;;;;;;5106569;28;20927;-85
2022/03/21 14:18:32;;;;;;;10.47;9.37;;;;;;;;;;5103842;28;20469;-85
2022/03/21 14:21:00;;;;;;;12.70;9.77;;;;;;;;;;5103985;28;20428;-87
2022/03/21 14:23:27;;;;;;;13.80;10.73;;;;;;;;;;5106096;28;20408;-90
2022/03/21 14:28:37;;;;;;;15.30;10.17;;;;;;;;;;5104424;28;20891;-88
2022/03/21 14:31:07;;;;;;;12.30;10.47;;;;;;;;;;5100492;28;20459;-89
2022/03/21 14:33:33;;;;;;;13.40;10.57;;;;;;;;;;5097646;28;20436;-82
2022/03/21 14:36:03;;;;;;;33.03;10.67;;;;;;;;;;5093332;28;20419;-84
2022/03/21 14:38:29;;;;;;;13.67;10.07;;;;;;;;;;5093714;28;20497;-83